createdAt,value
2022-09-03T00:02:33.734Z,8.50
2022-09-03T00:05:19.145Z,8.40
2022-09-03T00:07:56.333Z,8.50
2022-09-03T00:10:47.314Z,8.60
2022-09-03T00:13:23.183Z,8.40
2022-09-03T00:15:55.248Z,8.40
2022-09-03T00:18:29.630Z,8.30
2022-09-03T00:21:15.117Z,8.30
2022-09-03T00:23:46.760Z,8.20
2022-09-03T00:26:26.085Z,8.30
2022-09-03T00:29:13.666Z,8.30
2022-09-03T00:31:47.865Z,8.20
2022-09-03T00:34:31.129Z,8.20
2022-09-03T00:36:59.235Z,7.70
2022-09-03T00:39:28.053Z,8.40
2022-09-03T00:42:23.781Z,8.20
2022-09-03T00:45:18.745Z,8.10
2022-09-03T00:48:05.277Z,8.10
2022-09-03T00:50:49.886Z,8.00
2022-09-03T00:53:39.561Z,8.10
2022-09-03T00:56:35.473Z,8.00
2022-09-03T00:59:15.317Z,7.80
2022-09-03T01:01:55.649Z,7.90
2022-09-03T01:04:45.046Z,8.00
2022-09-03T01:07:40.913Z,7.70
2022-09-03T01:10:19.273Z,7.90
2022-09-03T01:13:00.512Z,7.60
2022-09-03T01:15:42.588Z,7.70
2022-09-03T01:18:34.845Z,7.70
2022-09-03T01:21:24.425Z,7.80
2022-09-03T01:24:23.817Z,7.50
2022-09-03T01:27:11.149Z,7.50
2022-09-03T01:29:54.115Z,7.60
2022-09-03T01:32:29.511Z,7.70
2022-09-03T01:35:19.912Z,7.80
2022-09-03T01:38:18.220Z,7.70
2022-09-03T01:41:24.470Z,7.70
2022-09-03T01:44:16.989Z,7.70
2022-09-03T01:46:51.093Z,7.40
2022-09-03T01:49:37.946Z,7.40
2022-09-03T01:52:16.241Z,7.20
2022-09-03T01:55:06.338Z,7.40
2022-09-03T01:57:47.822Z,7.30
2022-09-03T02:00:21.506Z,7.20
2022-09-03T02:02:51.682Z,7.30
2022-09-03T02:05:35.433Z,7.30
2022-09-03T02:08:06.908Z,7.20
2022-09-03T02:10:52.366Z,7.30
2022-09-03T02:13:25.956Z,7.30
2022-09-03T02:15:56.485Z,7.30
2022-09-03T02:18:31.269Z,7.20
2022-09-03T02:21:01.289Z,7.30
2022-09-03T02:23:29.936Z,7.20
2022-09-03T02:26:10.789Z,7.30
2022-09-03T02:31:06.492Z,7.50
2022-09-03T02:33:38.578Z,7.20
2022-09-03T02:36:08.904Z,7.10
2022-09-03T02:38:36.796Z,7.10
2022-09-03T02:41:04.333Z,7.10
2022-09-03T02:43:46.260Z,7.10
2022-09-03T02:46:21.656Z,7.10
2022-09-03T02:48:49.528Z,7.20
2022-09-03T02:51:17.021Z,7.20
2022-09-03T02:53:46.196Z,7.20
2022-09-03T02:56:14.134Z,7.20
2022-09-03T02:58:41.605Z,7.30
2022-09-03T03:01:09.058Z,7.50
2022-09-03T03:03:36.623Z,7.40
2022-09-03T03:06:05.980Z,7.50
2022-09-03T03:08:35.297Z,7.30
2022-09-03T03:11:02.835Z,7.30
2022-09-03T03:13:31.606Z,7.20
2022-09-03T03:16:03.313Z,7.10
2022-09-03T03:18:31.092Z,7.50
2022-09-03T03:21:03.401Z,7.30
2022-09-03T03:23:32.922Z,7.40
2022-09-03T03:26:06.413Z,7.30
2022-09-03T03:28:35.442Z,7.30
2022-09-03T03:31:11.750Z,7.30
2022-09-03T03:33:40.208Z,7.30
2022-09-03T03:36:11.917Z,7.20
2022-09-03T03:38:40.788Z,7.30
2022-09-03T03:41:11.540Z,7.40
2022-09-03T03:43:39.429Z,7.50
2022-09-03T03:46:07.083Z,7.50
2022-09-03T03:48:34.784Z,7.70
2022-09-03T03:51:05.068Z,7.70
2022-09-03T03:53:35.156Z,7.70
2022-09-03T03:56:08.358Z,7.80
2022-09-03T03:58:36.087Z,7.70
2022-09-03T04:01:09.038Z,7.90
2022-09-03T04:03:38.732Z,7.70
2022-09-03T04:06:07.060Z,7.90
2022-09-03T04:08:36.760Z,7.90
2022-09-03T04:11:06.123Z,8.10
2022-09-03T04:13:37.230Z,8.10
2022-09-03T04:16:08.766Z,8.20
2022-09-03T04:18:38.076Z,8.30
2022-09-03T04:21:09.732Z,8.30
2022-09-03T04:23:40.674Z,8.30
2022-09-03T04:26:12.510Z,8.40
2022-09-03T04:28:42.193Z,8.80
2022-09-03T04:31:12.007Z,9.00
2022-09-03T04:33:41.553Z,8.90
2022-09-03T04:36:11.722Z,9.00
2022-09-03T04:38:41.863Z,8.90
2022-09-03T04:41:12.197Z,9.30
2022-09-03T04:43:40.165Z,8.00
2022-09-03T04:46:16.083Z,9.50
2022-09-03T04:48:51.445Z,9.70
2022-09-03T04:51:22.197Z,9.60
2022-09-03T04:53:56.665Z,9.10
2022-09-03T04:56:29.848Z,9.20
2022-09-03T04:59:00.153Z,9.70
2022-09-03T05:01:37.236Z,10.20
2022-09-03T05:04:07.636Z,10.30
2022-09-03T05:06:36.539Z,9.80
2022-09-03T05:09:06.000Z,10.30
2022-09-03T05:11:34.502Z,9.90
2022-09-03T05:14:03.774Z,10.40
2022-09-03T05:16:31.471Z,10.10
2022-09-03T05:19:01.493Z,10.20
2022-09-03T05:21:29.503Z,10.80
2022-09-03T05:23:57.711Z,11.30
2022-09-03T05:26:31.713Z,10.50
2022-09-03T05:29:01.465Z,10.70
2022-09-03T05:31:32.772Z,10.70
2022-09-03T05:34:03.661Z,10.70
2022-09-03T05:36:36.394Z,10.60
2022-09-03T05:39:05.134Z,11.10
2022-09-03T05:41:34.273Z,11.40
2022-09-03T05:44:02.440Z,11.10
2022-09-03T05:46:35.052Z,11.50
2022-09-03T05:49:07.768Z,11.50
2022-09-03T05:51:36.796Z,11.20
2022-09-03T05:54:04.304Z,11.80
2022-09-03T05:56:33.530Z,12.40
2022-09-03T05:59:03.206Z,12.90
2022-09-03T06:01:33.573Z,12.40
2022-09-03T06:04:04.356Z,13.40
2022-09-03T06:06:34.982Z,14.60
2022-09-03T06:09:07.871Z,15.20
2022-09-03T06:11:37.590Z,16.50
2022-09-03T06:14:09.441Z,17.90
2022-09-03T06:16:40.265Z,18.30
2022-09-03T06:19:09.863Z,17.20
2022-09-03T06:21:40.717Z,18.40
2022-09-03T06:24:09.201Z,19.50
2022-09-03T06:26:36.737Z,18.80
2022-09-03T06:29:07.206Z,18.90
2022-09-03T06:31:35.910Z,19.20
2022-09-03T06:34:04.388Z,17.70
2022-09-03T06:36:32.761Z,19.90
2022-09-03T06:39:00.196Z,18.80
2022-09-03T06:41:32.238Z,20.20
2022-09-03T06:44:03.533Z,19.10
2022-09-03T06:46:35.109Z,16.70
2022-09-03T06:49:02.794Z,16.30
2022-09-03T06:51:33.411Z,16.20
2022-09-03T06:54:04.877Z,17.40
2022-09-03T06:56:38.864Z,19.00
2022-09-03T06:59:10.415Z,19.50
2022-09-03T07:01:43.551Z,18.80
2022-09-03T07:04:16.374Z,17.60
2022-09-03T07:06:45.884Z,18.90
2022-09-03T07:09:15.613Z,17.70
2022-09-03T07:11:48.305Z,18.90
2022-09-03T07:14:18.865Z,20.90
2022-09-03T07:16:48.271Z,18.80
2022-09-03T07:19:16.527Z,17.50
2022-09-03T07:21:49.205Z,18.70
2022-09-03T07:24:20.072Z,17.10
2022-09-03T07:26:49.493Z,17.40
2022-09-03T07:29:20.943Z,17.70
2022-09-03T07:31:54.176Z,18.60
2022-09-03T07:34:25.630Z,16.70
2022-09-03T07:36:54.703Z,16.40
2022-09-03T07:39:24.429Z,19.40
2022-09-03T07:41:51.796Z,20.40
2022-09-03T07:44:20.171Z,21.10
2022-09-03T07:46:51.443Z,20.20
2022-09-03T07:49:21.260Z,21.30
2022-09-03T07:51:52.510Z,20.20
2022-09-03T07:54:24.284Z,17.80
2022-09-03T07:56:54.973Z,18.60
2022-09-03T07:59:24.022Z,20.10
2022-09-03T08:01:54.802Z,20.60
2022-09-03T08:04:24.914Z,19.60
2022-09-03T08:06:55.934Z,18.80
2022-09-03T08:09:23.534Z,19.90
2022-09-03T08:11:51.282Z,19.50
2022-09-03T08:14:19.368Z,19.20
2022-09-03T08:16:48.335Z,22.00
2022-09-03T08:19:18.668Z,22.30
2022-09-03T08:21:46.442Z,21.20
2022-09-03T08:24:16.789Z,20.70
2022-09-03T08:26:51.172Z,23.10
2022-09-03T08:29:19.863Z,20.90
2022-09-03T08:31:47.341Z,19.20
2022-09-03T08:34:19.760Z,17.40
2022-09-03T08:36:48.074Z,19.70
2022-09-03T08:39:18.812Z,22.00
2022-09-03T08:42:19.738Z,21.70
2022-09-03T08:44:56.378Z,22.40
2022-09-03T08:47:34.838Z,20.60
2022-09-03T08:50:25.475Z,18.70
2022-09-03T08:53:15.734Z,19.50
2022-09-03T08:56:00.466Z,22.00
2022-09-03T08:58:31.513Z,22.40
2022-09-03T09:01:32.003Z,17.40
2022-09-03T09:04:36.275Z,20.10
2022-09-03T09:07:27.670Z,21.20
2022-09-03T09:10:19.388Z,23.60
2022-09-03T09:13:04.576Z,22.90
2022-09-03T09:16:04.692Z,19.20
2022-09-03T09:19:00.781Z,18.10
2022-09-03T09:21:40.441Z,16.50
2022-09-03T09:24:22.162Z,18.90
2022-09-03T09:26:55.004Z,19.20
2022-09-03T09:29:22.454Z,17.80
2022-09-03T09:31:50.009Z,16.80
2022-09-03T09:34:17.316Z,16.40
2022-09-03T09:36:55.386Z,17.40
2022-09-03T09:39:23.941Z,17.00
2022-09-03T09:42:11.432Z,20.00
2022-09-03T09:44:41.655Z,20.30
2022-09-03T09:47:21.406Z,22.80
2022-09-03T09:49:59.994Z,21.90
2022-09-03T09:52:32.682Z,22.00
2022-09-03T09:55:10.886Z,21.50
2022-09-03T09:57:39.983Z,23.30
2022-09-03T10:00:16.065Z,22.80
2022-09-03T10:02:51.113Z,23.50
2022-09-03T10:05:28.447Z,25.20
2022-09-03T10:08:00.841Z,26.20
2022-09-03T10:10:31.898Z,21.40
2022-09-03T10:13:09.659Z,20.00
2022-09-03T10:16:06.100Z,22.40
2022-09-03T10:18:53.196Z,22.60
2022-09-03T10:21:32.942Z,23.80
2022-09-03T10:24:16.044Z,22.40
2022-09-03T10:26:50.229Z,20.10
2022-09-03T10:29:25.698Z,23.00
2022-09-03T10:32:23.072Z,21.70
2022-09-03T10:35:21.470Z,21.80
2022-09-03T10:38:16.079Z,20.60
2022-09-03T10:41:11.278Z,18.60
2022-09-03T10:44:01.337Z,17.70
2022-09-03T10:46:36.799Z,18.10
2022-09-03T10:49:29.296Z,18.00
2022-09-03T10:52:12.629Z,17.40
2022-09-03T10:54:57.629Z,18.20
2022-09-03T10:57:42.747Z,18.10
2022-09-03T11:00:13.330Z,17.30
2022-09-03T11:03:13.272Z,17.80
2022-09-03T11:05:54.249Z,17.20
2022-09-03T11:08:31.722Z,19.30
2022-09-03T11:11:22.160Z,23.70
2022-09-03T11:13:56.196Z,25.40
2022-09-03T11:16:34.431Z,22.60
2022-09-03T11:19:07.394Z,23.10
2022-09-03T11:21:45.513Z,25.90
2022-09-03T11:24:24.771Z,24.90
2022-09-03T11:27:15.118Z,21.60
2022-09-03T11:29:54.038Z,19.40
2022-09-03T11:32:29.127Z,22.50
2022-09-03T11:35:04.886Z,25.40
2022-09-03T11:37:35.411Z,20.40
2022-09-03T11:40:17.010Z,17.90
2022-09-03T11:42:46.245Z,17.00
2022-09-03T11:45:39.727Z,17.80
2022-09-03T11:48:37.952Z,17.10
2022-09-03T11:51:33.994Z,17.50
2022-09-03T11:54:13.134Z,16.50
2022-09-03T11:56:42.496Z,16.70
2022-09-03T11:59:27.644Z,16.70
2022-09-03T12:02:17.297Z,16.70
2022-09-03T12:05:19.911Z,17.30
2022-09-03T12:08:13.280Z,17.60
2022-09-03T12:10:52.122Z,17.80
2022-09-03T12:13:48.475Z,17.90
2022-09-03T12:16:46.941Z,20.20
2022-09-03T12:19:35.345Z,24.20
2022-09-03T12:22:05.997Z,24.40
2022-09-03T12:24:38.461Z,23.70
2022-09-03T12:27:06.016Z,22.00
2022-09-03T12:29:40.050Z,22.90
2022-09-03T12:32:11.732Z,24.60
2022-09-03T12:34:42.198Z,22.00
2022-09-03T12:40:21.736Z,21.40
2022-09-03T12:42:51.476Z,22.80
2022-09-03T12:45:24.245Z,23.70
2022-09-03T12:47:53.625Z,22.40
2022-09-03T12:50:31.089Z,20.30
2022-09-03T12:53:03.299Z,19.90
2022-09-03T12:55:40.553Z,18.20
2022-09-03T12:58:21.267Z,17.50
2022-09-03T13:00:59.053Z,17.00
2022-09-03T13:03:49.792Z,17.30
2022-09-03T13:06:31.207Z,17.40
2022-09-03T13:09:02.534Z,18.60
2022-09-03T13:11:41.713Z,19.30
2022-09-03T13:14:18.758Z,18.30
2022-09-03T13:17:02.649Z,18.40
2022-09-03T13:19:57.920Z,18.90
2022-09-03T13:22:57.278Z,23.20
2022-09-03T13:25:50.417Z,24.70
2022-09-03T13:28:48.334Z,24.60
2022-09-03T13:31:47.441Z,22.30
2022-09-03T13:34:29.119Z,23.40
2022-09-03T13:37:17.553Z,23.50
2022-09-03T13:40:00.474Z,23.50
2022-09-03T13:42:45.505Z,23.40
2022-09-03T13:45:36.511Z,20.40
2022-09-03T13:48:51.563Z,20.50
2022-09-03T13:51:33.867Z,20.10
2022-09-03T13:54:48.079Z,21.20
2022-09-03T13:57:41.557Z,21.50
2022-09-03T14:00:16.598Z,24.20
2022-09-03T14:03:10.734Z,22.60
2022-09-03T14:06:05.804Z,24.40
2022-09-03T14:09:19.111Z,23.40
2022-09-03T14:12:10.832Z,22.70
2022-09-03T14:14:52.281Z,21.50
2022-09-03T14:17:54.071Z,23.40
2022-09-03T14:20:30.193Z,20.80
2022-09-03T14:23:28.026Z,19.40
2022-09-03T14:25:58.046Z,21.90
2022-09-03T14:28:40.783Z,20.50
2022-09-03T14:31:27.155Z,18.40
2022-09-03T14:34:27.882Z,17.60
2022-09-03T14:37:23.353Z,16.90
2022-09-03T14:39:56.812Z,17.60
2022-09-03T14:42:47.966Z,20.10
2022-09-03T14:45:39.847Z,22.00
2022-09-03T14:48:27.613Z,19.10
2022-09-03T14:51:27.954Z,17.00
2022-09-03T14:54:23.074Z,16.60
2022-09-03T14:57:02.599Z,16.60
2022-09-03T15:00:03.206Z,16.90
2022-09-03T15:02:53.359Z,16.50
2022-09-03T15:05:52.544Z,16.30
2022-09-03T15:08:43.345Z,16.30
2022-09-03T15:11:22.945Z,16.40
2022-09-03T15:14:05.961Z,15.90
2022-09-03T15:16:56.356Z,16.00
2022-09-03T15:19:54.526Z,16.70
2022-09-03T15:22:38.029Z,17.60
2022-09-03T15:25:25.113Z,16.30
2022-09-03T15:28:19.038Z,16.70
2022-09-03T15:31:01.901Z,16.20
2022-09-03T15:33:37.246Z,16.20
2022-09-03T15:36:23.318Z,15.10
2022-09-03T15:39:04.827Z,15.10
2022-09-03T15:42:06.518Z,14.90
2022-09-03T15:44:52.403Z,15.20
2022-09-03T15:47:51.073Z,14.80
2022-09-03T15:50:40.793Z,15.20
2022-09-03T15:53:34.300Z,15.00
2022-09-03T15:56:18.602Z,14.90
2022-09-03T15:58:59.954Z,14.70
2022-09-03T16:01:48.598Z,14.70
2022-09-03T16:04:36.287Z,14.90
2022-09-03T16:07:18.926Z,14.80
2022-09-03T16:10:23.271Z,14.90
2022-09-03T16:13:07.882Z,14.40
2022-09-03T16:15:43.869Z,14.80
2022-09-03T16:18:33.425Z,14.40
2022-09-03T16:21:23.869Z,14.60
2022-09-03T16:24:10.956Z,14.50
2022-09-03T16:26:52.242Z,14.30
2022-09-03T16:29:28.381Z,14.30
2022-09-03T16:32:22.141Z,14.30
2022-09-03T16:35:03.501Z,14.40
2022-09-03T16:37:57.790Z,14.20
2022-09-03T16:40:41.007Z,14.10
2022-09-03T16:43:40.800Z,14.00
2022-09-03T16:46:33.305Z,14.10
2022-09-03T16:49:27.295Z,13.90
2022-09-03T16:52:12.099Z,14.00
2022-09-03T16:55:00.455Z,14.00
2022-09-03T16:57:59.299Z,14.00
2022-09-03T17:00:49.381Z,13.80
2022-09-03T17:03:48.313Z,14.10
2022-09-03T17:06:43.532Z,13.80
2022-09-03T17:09:50.885Z,14.10
2022-09-03T17:12:40.752Z,14.20
2022-09-03T17:15:34.938Z,14.20
2022-09-03T17:18:31.410Z,14.20
2022-09-03T17:21:19.521Z,14.00
2022-09-03T17:24:04.226Z,13.90
2022-09-03T17:27:04.206Z,13.80
2022-09-03T17:29:56.506Z,13.70
2022-09-03T17:33:03.965Z,13.60
2022-09-03T17:36:05.874Z,13.50
2022-09-03T17:39:00.776Z,13.60
2022-09-03T17:41:46.191Z,13.70
2022-09-03T17:44:48.932Z,14.00
2022-09-03T17:47:42.516Z,13.90
2022-09-03T17:50:26.054Z,13.80
2022-09-03T17:53:03.057Z,13.80
2022-09-03T17:55:42.531Z,13.60
2022-09-03T17:58:31.638Z,13.50
2022-09-03T18:01:13.471Z,13.50
2022-09-03T18:04:05.445Z,13.60
2022-09-03T18:06:53.688Z,13.80
2022-09-03T18:09:49.176Z,13.80
2022-09-03T18:13:03.507Z,13.80
2022-09-03T18:15:48.692Z,13.70
2022-09-03T18:18:33.098Z,13.80
2022-09-03T18:21:26.607Z,13.90
2022-09-03T18:24:21.096Z,14.10
2022-09-03T18:27:20.792Z,13.90
2022-09-03T18:30:16.983Z,13.80
2022-09-03T18:32:59.959Z,13.70
2022-09-03T18:35:47.126Z,13.70
2022-09-03T18:38:31.162Z,13.80
2022-09-03T18:41:32.446Z,13.60
2022-09-03T18:44:40.378Z,13.60
2022-09-03T18:48:05.543Z,13.70
2022-09-03T18:51:04.078Z,13.60
2022-09-03T18:54:15.637Z,13.40
2022-09-03T18:57:04.000Z,13.50
2022-09-03T19:00:17.591Z,13.50
2022-09-03T19:03:35.493Z,13.40
2022-09-03T19:06:53.502Z,13.40
2022-09-03T19:10:14.850Z,13.20
2022-09-03T19:13:22.075Z,13.00
2022-09-03T19:16:25.777Z,13.20
2022-09-03T19:19:43.628Z,12.90
2022-09-03T19:22:39.523Z,12.80
2022-09-03T19:25:28.044Z,12.80
2022-09-03T19:28:25.382Z,12.90
2022-09-03T19:31:39.219Z,13.70
2022-09-03T19:34:41.521Z,12.70
2022-09-03T19:37:37.565Z,12.90
2022-09-03T19:40:47.195Z,12.90
2022-09-03T19:43:57.817Z,12.90
2022-09-03T19:47:01.551Z,12.60
2022-09-03T19:50:14.590Z,12.70
2022-09-03T19:53:06.566Z,12.70
2022-09-03T19:56:05.176Z,12.90
2022-09-03T19:59:04.238Z,12.80
2022-09-03T20:01:53.218Z,13.00
2022-09-03T20:04:45.190Z,12.90
2022-09-03T20:20:50.142Z,12.40
2022-09-03T20:23:41.550Z,12.30
2022-09-03T20:29:25.634Z,12.70
2022-09-03T20:34:58.309Z,12.20
2022-09-03T20:40:28.961Z,12.30
2022-09-03T20:43:20.572Z,12.40
2022-09-03T20:46:18.896Z,12.50
2022-09-03T21:18:29.548Z,12.50
2022-09-03T21:21:31.819Z,12.50
2022-09-03T21:37:00.006Z,12.80
2022-09-03T21:42:30.018Z,12.40
2022-09-03T21:53:04.155Z,12.50
2022-09-03T22:08:32.049Z,12.30
2022-09-03T22:14:02.751Z,12.30
2022-09-03T23:32:17.862Z,11.10
